Météo Nord-Pas-de-Calais   La météo au plus près de chez vous

Station météorologique

Observations météo à Bernay (27056)

27056003 166 m Dernier relevé à 16:24
24.4°C
Humidité 44 % Vent 15.1 km/h

Journée consultée

Mercredi 2 Septembre 2026

Synthèse de la journée

Périodes de référence en UTC

Température maximale

24.4°C

à 16:24

06h 06h

Température minimale

9.1°C

à 08:00

18h 18h

Rafale maximale

31 km/h

à 13:24

00h 00h

Précipitations

0 mm

Cumul quotidien

06h 06h

Ensoleillement

6h 7 mins

Durée quotidienne

00h 00h

Graphiques de la journée

Heure locale Réduire

Données détaillées

Relevés météo

Pas de 6 minutes Afficher les relevés infra-horaires
Relevés météo détaillés à Bernay pour le Mercredi 2 Septembre 2026
Heure Température °C Point de rosée °C Humidité % Vent moyen (raf.), km/h Précipitations mm Ensoleillement min Rayonnement global W/m²
16:24 24.4 °C 11 °C 43 % 14 km/h (27 km/h) 0 mm0 mm 6 min 240.1 W/m²
16:18 24.3 °C 11.6 °C 45 % 11 km/h (19 km/h) 0 mm0 mm 6 min 240.7 W/m²
16:12 24 °C 11.3 °C 45 % 10 km/h (18 km/h) 0 mm0 mm 5 min 221.8 W/m²
16:06 23.9 °C 11.6 °C 46 % 8 km/h (18 km/h) 0 mm0 mm 4 min 177 W/m²
16:00 24.1 °C 12.4 °C 48 % 11 km/h (22 km/h) 0 mm0 mm 5 min 243.4 W/m²
15:54 23.7 °C 11.4 °C 46 % 12 km/h (24 km/h) 0 mm0 mm 6 min 227.9 W/m²
15:48 23.6 °C 11.6 °C 47 % 14 km/h (24 km/h) 0 mm0 mm 5 min 190.7 W/m²
15:42 23.6 °C 11 °C 45 % 12 km/h (23 km/h) 0 mm0 mm 4 min 182.9 W/m²
15:36 23.6 °C 11.9 °C 48 % 12 km/h (22 km/h) 0 mm0 mm 5 min 207.3 W/m²
15:30 23.6 °C 10.6 °C 44 % 15 km/h (23 km/h) 0 mm0 mm 6 min 240.2 W/m²
15:24 23.7 °C 10.7 °C 44 % 15 km/h (24 km/h) 0 mm0 mm 6 min 244.3 W/m²
15:18 23.8 °C 10.8 °C 44 % 15 km/h (24 km/h) 0 mm0 mm 6 min 260.1 W/m²
15:12 23.4 °C 11.4 °C 47 % 14 km/h (27 km/h) 0 mm0 mm 6 min 266.8 W/m²
15:06 22.7 °C 11.1 °C 48 % 15 km/h (27 km/h) 0 mm0 mm 6 min 209.5 W/m²
15:00 22.9 °C 10.7 °C 46 % 13 km/h (22 km/h) 0 mm0 mm 6 min 221.1 W/m²
14:54 23.3 °C 11.4 °C 47 % 12 km/h (21 km/h) 0 mm0 mm 6 min 250.8 W/m²
14:48 23.2 °C 11.6 °C 48 % 11 km/h (20 km/h) 0 mm0 mm 6 min 233.9 W/m²
14:42 22.8 °C 11.2 °C 48 % 13 km/h (21 km/h) 0 mm0 mm 6 min 252.4 W/m²
14:36 22.2 °C 11 °C 49 % 13 km/h (21 km/h) 0 mm0 mm 2 min 194.2 W/m²
14:30 22.4 °C 11.2 °C 49 % 12 km/h (20 km/h) 0 mm0 mm 0 min 152.7 W/m²
14:24 22.6 °C 11 °C 48 % 14 km/h (22 km/h) 0 mm0 mm 4 min 187.9 W/m²
14:18 22.7 °C 11.4 °C 49 % 13 km/h (21 km/h) 0 mm0 mm 5 min 240.7 W/m²
14:12 22.5 °C 10.9 °C 48 % 10 km/h (18 km/h) 0 mm0 mm 0 min 163.3 W/m²
14:06 22.2 °C 11.3 °C 50 % 11 km/h (24 km/h) 0 mm0 mm 0 min 151 W/m²
14:00 22.5 °C 10.9 °C 48 % 10 km/h (24 km/h) 0 mm0 mm 0 min 162.9 W/m²
13:54 22.2 °C 10.3 °C 47 % 9 km/h (14 km/h) 0 mm0 mm 0 min 176.1 W/m²
13:48 22.6 °C 11.6 °C 50 % 10 km/h (21 km/h) 0 mm0 mm 5 min 251.4 W/m²
13:42 21.9 °C 11.3 °C 51 % 14 km/h (23 km/h) 0 mm0 mm 1 min 175.7 W/m²
13:36 22.3 °C 10.8 °C 48 % 12 km/h (23 km/h) 0 mm0 mm 4 min 196 W/m²
13:30 22.3 °C 10.8 °C 48 % 13 km/h (31 km/h) 0 mm0 mm 6 min 227.6 W/m²
13:24 22.2 °C 11.3 °C 50 % 11 km/h (31 km/h) 0 mm0 mm 4 min 243.3 W/m²
13:18 22 °C 11.7 °C 52 % 10 km/h (21 km/h) 0 mm0 mm 0 min 165.8 W/m²
13:12 21.7 °C 11.1 °C 51 % 13 km/h (21 km/h) 0 mm0 mm 5 min 193.4 W/m²
13:06 22 °C 10.8 °C 49 % 12 km/h (25 km/h) 0 mm0 mm 5 min 257.8 W/m²
13:00 22 °C 11.1 °C 50 % 12 km/h (25 km/h) 0 mm0 mm 5 min 241.1 W/m²
12:54 21.9 °C 10.7 °C 49 % 12 km/h (22 km/h) 0 mm0 mm 6 min 269.1 W/m²
12:48 21.9 °C 11.6 °C 52 % 12 km/h (20 km/h) 0 mm0 mm 6 min 266.4 W/m²
12:42 21.9 °C 11 °C 50 % 10 km/h (18 km/h) 0 mm0 mm 6 min 252.8 W/m²
12:36 21.5 °C 10 °C 48 % 12 km/h (19 km/h) 0 mm0 mm 5 min 219.2 W/m²
12:30 21 °C 10.2 °C 50 % 12 km/h (19 km/h) 0 mm0 mm 5 min 184 W/m²
12:24 21.1 °C 10.9 °C 52 % 10 km/h (19 km/h) 0 mm0 mm 3 min 170.4 W/m²
12:18 20.8 °C 10.3 °C 51 % 12 km/h (20 km/h) 0 mm0 mm 0 min 133.2 W/m²
12:12 21.3 °C 10.1 °C 49 % 12 km/h (21 km/h) 0 mm0 mm 3 min 181.5 W/m²
12:06 21.5 °C 10 °C 48 % 10 km/h (21 km/h) 0 mm0 mm 6 min 277.9 W/m²
12:00 21.4 °C 11.1 °C 52 % 10 km/h (16 km/h) 0 mm0 mm 6 min 245.2 W/m²
11:54 21.2 °C 10.9 °C 52 % 9 km/h (16 km/h) 0 mm0 mm 6 min 231.8 W/m²
11:48 20.4 °C 10.5 °C 53 % 9 km/h (16 km/h) 0 mm0 mm 3 min 168.4 W/m²
11:42 20.1 °C 10.5 °C 54 % 9 km/h (16 km/h) 0 mm0 mm 2 min 152.6 W/m²
11:36 20.3 °C 10.4 °C 53 % 9 km/h (18 km/h) 0 mm0 mm 5 min 205.4 W/m²
11:30 19.8 °C 9.4 °C 51 % 10 km/h (16 km/h) 0 mm0 mm 3 min 158.5 W/m²
11:24 20 °C 10.1 °C 53 % 9 km/h (16 km/h) 0 mm0 mm 6 min 163.3 W/m²
11:18 20 °C 10.4 °C 54 % 9 km/h (15 km/h) 0 mm0 mm 6 min 180.3 W/m²
11:12 19.7 °C 10.7 °C 56 % 9 km/h (16 km/h) 0 mm0 mm 6 min 183.3 W/m²
11:06 19.8 °C 11.8 °C 60 % 8 km/h (15 km/h) 0 mm0 mm 5 min 163.1 W/m²
11:00 19.4 °C 11.4 °C 60 % 11 km/h (15 km/h) 0 mm0 mm 3 min 139.6 W/m²
10:54 19.3 °C 10.8 °C 58 % 10 km/h (14 km/h) 0 mm0 mm 6 min 189.6 W/m²
10:48 19.3 °C 11.3 °C 60 % 10 km/h (14 km/h) 0 mm0 mm 6 min 200.1 W/m²
10:42 19 °C 11.8 °C 63 % 9 km/h (14 km/h) 0 mm0 mm 6 min 193.3 W/m²
10:36 18.8 °C 12.3 °C 66 % 7 km/h (12 km/h) 0 mm0 mm 6 min 178.7 W/m²
10:30 18.6 °C 12.6 °C 68 % 6 km/h (11 km/h) 0 mm0 mm 6 min 169.4 W/m²
10:24 18.2 °C 13.9 °C 76 % 5 km/h (9 km/h) 0 mm0 mm 6 min 155.1 W/m²
10:18 17.6 °C 12.5 °C 72 % 5 km/h (9 km/h) 0 mm0 mm 5 min 125.2 W/m²
10:12 17.5 °C 13 °C 75 % 5 km/h (9 km/h) 0 mm0 mm 6 min 156.2 W/m²
10:06 17.4 °C 13.1 °C 76 % 3 km/h (6 km/h) 0 mm0 mm 6 min 145.2 W/m²
10:00 16.8 °C 13.1 °C 79 % 4 km/h (6 km/h) 0 mm0 mm 6 min 134.8 W/m²
09:54 16.2 °C 12.9 °C 81 % 4 km/h (7 km/h) 0 mm0 mm 6 min 130.7 W/m²
09:48 15.7 °C 12.3 °C 80 % 4 km/h (7 km/h) 0 mm0 mm 6 min 123.5 W/m²
09:42 15.2 °C 12 °C 81 % 4 km/h (7 km/h) 0 mm0 mm 6 min 118.6 W/m²
09:36 14.7 °C 11.8 °C 83 % 5 km/h (7 km/h) 0 mm0 mm 2 min 73.1 W/m²
09:30 14.5 °C 12.2 °C 86 % 5 km/h (7 km/h) 0 mm0 mm 6 min 108.1 W/m²
09:24 14 °C 12.2 °C 89 % 4 km/h (6 km/h) 0 mm0 mm 6 min 87 W/m²
09:18 13.5 °C 11.7 °C 89 % 3 km/h (6 km/h) 0 mm0 mm 2 min 65.1 W/m²
09:12 13.2 °C 11.6 °C 90 % 3 km/h (6 km/h) 0 mm0 mm 0 min 39 W/m²
09:06 13.1 °C 11.5 °C 90 % 4 km/h (7 km/h) 0 mm0 mm 0 min 43.8 W/m²
09:00 13 °C 11.4 °C 90 % 5 km/h (8 km/h) 0 mm0 mm 4 min 59.9 W/m²
08:54 12.6 °C 11.3 °C 92 % 5 km/h (8 km/h) 0 mm0 mm 6 min 80.4 W/m²
08:48 12 °C 11.2 °C 95 % 4 km/h (6 km/h) 0 mm0 mm 5 min 61.6 W/m²
08:42 11.5 °C 10.7 °C 95 % 4 km/h (6 km/h) 0 mm0 mm 0 min 30.5 W/m²
08:36 11.2 °C 10.4 °C 95 % 4 km/h (7 km/h) 0 mm0 mm 0 min 15.7 W/m²
08:30 11.2 °C 10.4 °C 95 % 5 km/h (7 km/h) 0 mm0 mm 0 min 19.2 W/m²
08:24 11.1 °C 10.5 °C 96 % 5 km/h (7 km/h) 0 mm0 mm 0 min 14 W/m²
08:18 11 °C 10.4 °C 96 % 5 km/h (8 km/h) 0 mm0 mm 0 min 15.2 W/m²
08:12 10.9 °C 10.3 °C 96 % 5 km/h (9 km/h) 0 mm0 mm 0 min 15.9 W/m²
08:06 10.8 °C 10.3 °C 97 % 5 km/h (8 km/h) 0 mm0 mm 1 min 16.8 W/m²
08:00 10.8 °C 10.5 °C 98 % 5 km/h (9 km/h) 0 mm0 mm 6 min 22.6 W/m²
07:54 10.4 °C 10.2 °C 99 % 5 km/h (8 km/h) 0 mm0 mm 6 min 19.4 W/m²
07:48 10.2 °C 10.2 °C 100 % 5 km/h (8 km/h) 0 mm0 mm 6 min 14.1 W/m²
07:42 10.1 °C 10.1 °C 100 % 6 km/h (8 km/h) 0 mm0 mm 3 min 11.5 W/m²
07:36 9.8 °C 9.8 °C 100 % 5 km/h (7 km/h) 0 mm0 mm 0 min 5.6 W/m²
07:30 9.3 °C 9.3 °C 100 % 4 km/h (6 km/h) 0 mm0 mm 0 min 0 W/m²
07:24 9.3 °C 9.3 °C 100 % 4 km/h (6 km/h) 0 mm0 mm 0 min 0 W/m²
07:18 9.4 °C 9.4 °C 100 % 5 km/h (6 km/h) 0 mm0 mm 0 min 0 W/m²
07:12 9.3 °C 9.3 °C 100 % 4 km/h (6 km/h) 0 mm0 mm 0 min 0 W/m²
07:06 9.2 °C 9.2 °C 100 % 4 km/h (6 km/h) 0 mm0 mm 0 min 0 W/m²
07:00 9.4 °C 9.4 °C 100 % 4 km/h (6 km/h) 0 mm0 mm 0 min 0 W/m²
06:54 9.4 °C 9.4 °C 100 % 4 km/h (5 km/h) 0 mm0 mm 0 min 0 W/m²
06:48 9.3 °C 9.3 °C 100 % 3 km/h (4 km/h) 0 mm0 mm 0 min 0 W/m²
06:42 9.4 °C 9.4 °C 100 % 3 km/h (4 km/h) 0 mm0 mm 0 min 0 W/m²
06:36 9.3 °C 9.3 °C 100 % 4 km/h (6 km/h) 0 mm0 mm 0 min 0 W/m²
06:30 9.5 °C 9.5 °C 100 % 5 km/h (6 km/h) 0 mm0 mm 0 min 0 W/m²
06:24 9.4 °C 9.3 °C 99 % 5 km/h (6 km/h) 0 mm0 mm 0 min 0 W/m²
06:18 9.3 °C 9 °C 98 % 4 km/h (5 km/h) 0 mm0 mm 0 min 0 W/m²
06:12 9.4 °C 9.1 °C 98 % 4 km/h (5 km/h) 0 mm0 mm 0 min 0 W/m²
06:06 9.7 °C 9.6 °C 99 % 4 km/h (5 km/h) 0 mm0 mm 0 min 0 W/m²
06:00 9.9 °C 9.9 °C 100 % 5 km/h (6 km/h) 0 mm0 mm 0 min 0 W/m²
05:54 9.8 °C 9.8 °C 100 % 5 km/h (6 km/h) 0 mm0 mm 0 min 0 W/m²
05:48 9.8 °C 9.8 °C 100 % 5 km/h (7 km/h) 0 mm0 mm 0 min 0 W/m²
05:42 9.7 °C 9.7 °C 100 % 4 km/h (6 km/h) 0 mm0 mm 0 min 0 W/m²
05:36 9.8 °C 9.8 °C 100 % 5 km/h (7 km/h) 0 mm0 mm 0 min 0 W/m²
05:30 9.4 °C 9.3 °C 99 % 5 km/h (7 km/h) 0 mm0 mm 0 min 0 W/m²
05:24 9.4 °C 9.3 °C 99 % 4 km/h (5 km/h) 0 mm0 mm 0 min 0 W/m²
05:18 9.5 °C 9.4 °C 99 % 4 km/h (5 km/h) 0 mm0 mm 0 min 0 W/m²
05:12 9.6 °C 9.5 °C 99 % 3 km/h (5 km/h) 0 mm0 mm 0 min 0 W/m²
05:06 9.7 °C 9.6 °C 99 % 3 km/h (4 km/h) 0 mm0 mm 0 min 0 W/m²
05:00 9.8 °C 9.7 °C 99 % 3 km/h (4 km/h) 0 mm0 mm 0 min 0 W/m²
04:54 9.9 °C 9.7 °C 99 % 3 km/h (4 km/h) 0 mm0 mm 0 min 0 W/m²
04:48 10 °C 10 °C 100 % 3 km/h (4 km/h) 0 mm0 mm 0 min 0 W/m²
04:42 10 °C 10 °C 100 % 0 km/h (3 km/h) 0 mm0 mm 0 min 0 W/m²
04:36 10.2 °C 10.2 °C 100 % 2 km/h (4 km/h) 0 mm0 mm 0 min 0 W/m²
04:30 10.1 °C 9.9 °C 99 % 2 km/h (4 km/h) 0 mm0 mm 0 min 0 W/m²
04:24 10 °C 9.7 °C 98 % 3 km/h (4 km/h) 0 mm0 mm 0 min 0 W/m²
04:18 10.1 °C 9.8 °C 98 % 3 km/h (4 km/h) 0 mm0 mm 0 min 0 W/m²
04:12 10.2 °C 9.7 °C 97 % 3 km/h (4 km/h) 0 mm0 mm 0 min 0 W/m²
04:06 10.3 °C 9.8 °C 97 % 3 km/h (4 km/h) 0 mm0 mm 0 min 0 W/m²
04:00 10.4 °C 9.9 °C 97 % 3 km/h (6 km/h) 0 mm0 mm 0 min 0 W/m²
03:54 10.5 °C 10 °C 97 % 4 km/h (6 km/h) 0 mm0 mm 0 min 0 W/m²
03:48 10.7 °C 10.2 °C 97 % 3 km/h (6 km/h) 0 mm0 mm 0 min 0 W/m²
03:42 10.9 °C 10.4 °C 97 % 2 km/h (4 km/h) 0 mm0 mm 0 min 0 W/m²
03:36 11.1 °C 10.8 °C 98 % 3 km/h (4 km/h) 0 mm0 mm 0 min 0 W/m²
03:30 11 °C 10.5 °C 97 % 0 km/h (3 km/h) 0 mm0 mm 0 min 0 W/m²
03:24 11.2 °C 10.9 °C 98 % 2 km/h (4 km/h) 0 mm0 mm 0 min 0 W/m²
03:18 11.3 °C 11 °C 98 % 3 km/h (5 km/h) 0 mm0 mm 0 min 0 W/m²
03:12 11.2 °C 10.9 °C 98 % 3 km/h (5 km/h) 0 mm0 mm 0 min 0 W/m²
03:06 11.1 °C 10.8 °C 98 % 3 km/h (4 km/h) 0 mm0 mm 0 min 0 W/m²
03:00 11.1 °C 10.6 °C 97 % 0 km/h (3 km/h) 0 mm0 mm 0 min 0 W/m²
02:54 11.2 °C 10.7 °C 97 % 2 km/h (6 km/h) 0 mm0 mm 0 min 0 W/m²
02:48 11.2 °C 10.6 °C 96 % 4 km/h (6 km/h) 0 mm0 mm 0 min 0 W/m²
02:42 11.3 °C 10.8 °C 97 % 4 km/h (6 km/h) 0 mm0 mm 0 min 0 W/m²
02:36 11.3 °C 10.7 °C 96 % 4 km/h (6 km/h) 0 mm0 mm 0 min 0 W/m²
02:30 11.4 °C 10.6 °C 95 % 4 km/h (6 km/h) 0 mm0 mm 0 min 0 W/m²
02:24 11.5 °C 10.7 °C 95 % 4 km/h (7 km/h) 0 mm0 mm 0 min 0 W/m²
02:18 11.6 °C 11 °C 96 % 5 km/h (7 km/h) 0 mm0 mm 0 min 0 W/m²
02:12 11.6 °C 11 °C 96 % 6 km/h (7 km/h) 0 mm0 mm 0 min 0 W/m²
02:06 11.7 °C 11.2 °C 97 % 6 km/h (8 km/h) 0 mm0 mm 0 min 0 W/m²
02:00 11.5 °C 10.9 °C 96 % 6 km/h (8 km/h) 0 mm0 mm 0 min 0 W/m²
01:54 11.6 °C 10.8 °C 95 % 4 km/h (6 km/h) 0 mm0 mm 0 min 0 W/m²
01:48 11.7 °C 10.9 °C 95 % 3 km/h (6 km/h) 0 mm0 mm 0 min 0 W/m²
01:42 11.8 °C 11 °C 95 % 3 km/h (5 km/h) 0 mm0 mm 0 min 0 W/m²
01:36 11.8 °C 11 °C 95 % 2 km/h (4 km/h) 0 mm0 mm 0 min 0 W/m²
01:30 11.9 °C 11 °C 94 % 3 km/h (5 km/h) 0 mm0 mm 0 min 0 W/m²
01:24 12.1 °C 11 °C 93 % 4 km/h (5 km/h) 0 mm0 mm 0 min 0 W/m²
01:18 12.2 °C 11.3 °C 94 % 4 km/h (6 km/h) 0 mm0 mm 0 min 0 W/m²
01:12 12.2 °C 11.1 °C 93 % 5 km/h (6 km/h) 0 mm0 mm 0 min 0 W/m²
01:06 12.1 °C 11.2 °C 94 % 4 km/h (6 km/h) 0 mm0 mm 0 min 0 W/m²
01:00 12.2 °C 10.9 °C 92 % 3 km/h (4 km/h) 0 mm0 mm 0 min 0 W/m²
00:54 12.3 °C 10.9 °C 91 % 2 km/h (3 km/h) 0 mm0 mm 0 min 0 W/m²
00:48 12.5 °C 11.1 °C 91 % 2 km/h (3 km/h) 0 mm0 mm 0 min 0 W/m²
00:42 12.6 °C 11.2 °C 91 % 2 km/h (3 km/h) 0 mm0 mm 0 min 0 W/m²
00:36 12.7 °C 11.3 °C 91 % 0 km/h (3 km/h) 0 mm0 mm 0 min 0 W/m²
00:30 12.8 °C 11.2 °C 90 % 2 km/h (3 km/h) 0 mm0 mm 0 min 0 W/m²
00:24 13 °C 11.2 °C 89 % 3 km/h (5 km/h) 0 mm0 mm 0 min 0 W/m²
00:18 13.1 °C 11.3 °C 89 % 4 km/h (6 km/h) 0 mm0 mm 0 min 0 W/m²
00:12 13.1 °C 11.2 °C 88 % 4 km/h (6 km/h) 0 mm0 mm 0 min 0 W/m²
00:06 13.3 °C 11.4 °C 88 % 4 km/h (5 km/h) 0 mm0 mm 0 min 0 W/m²
00:00 13.4 °C 11.5 °C 88 % 4 km/h (5 km/h) 0 mm0 mm 0 min 0 W/m²

Données via Météo-France

Relevés météo à Bernay

Cette page rassemble les observations de la station de Bernay : température, humidité, vent, précipitations et pression atmosphérique. Les graphiques facilitent le suivi de la journée, tandis que le tableau donne accès aux mesures horaires et infra-horaires disponibles.

Pour replacer ces mesures dans leur contexte, consultez la climatologie de Bernay ainsi que ses normales et records. Retrouvez aussi la carte des observations météo en temps réel.